Hovedside
METAR-TAF:

METAR-TAF

Lufthavner :

Hans Christian Andersen Airport

Odense, Danmark

breddegrad: 55-29N, lengdegrad: 010-20E, høyde over havet: 17 m

Gjeldene værobservasjon

Denne rapporten ble laget for 43 minutter siden, klokken 10:50 UTC
Vind 8 kt fra Vest med vindkast opp mot 18 kt, skiftende mellom Vest-sørvest og Nordvest
Temperatur 17°C
Luftfuktighet 59%
Trykk 1015 hPa
Sikt 10 km eller mer
Få skyer i en høyde av 3200 ft
Spredte skyer i en høyde av 5000 ft

METAR: EKOD 191050Z 27008G18KT 240V310 9999 FEW032 SCT050 17/09 Q1015

Tid: 13:33 (11:33 UTC)

Varsel

Denne rapporten ble laget for 3 timer og 10 minutter siden, klokken 08:23 UTC
Varsel gyldig fra 19. klokken 09 UTC til 19. klokken 16 UTC
Vind 10 kt fra Vest
Sikt 10 km eller mer
Brutte skyer i en høyde av 3500 ft

TAF: EKOD 190823Z 1909/1916 27010KT 9999 BKN035

Værobservasjoner og værvarsel for over 4000 flyplasser (METAR- og TAF-rapporter).

Tilgjengelige stasjoner er representert av de røde og gule prikkene på kartet.

Hold musepekeren over prikken for å se navnet på stasjonen.

Klikk så for å se værobservasjoner og -varsler.

For å forandre kartet kan du klikke på den grønne knappen med svart kryss for å zoome inn, på den grønne knappen med strek for å zoome ut, eller på de grønne pilene for å se tilstøtende kart.


METAR-TAF: